Timothy L. Reinauer — WDE8763 — position and weather

sailwx.info

Track history (hours):
 
Tides and Currents Weather Stations Pressure Air Temp Water Temp Dewpoint Dewpoint Depression Visibility Wind Speed Wind Dir Waves Ship Positions

Timothy L. Reinauer

Owner: H.A. Reineauer, Staten Island, NY. More information available from US FCC via Universal Licensing System.

Last reported at 2017-Sep-21 03:47 UTC. Time now 2017-Sep-22 18:55 UTC.
Position N 40°48' W 073°49'.

Length 137 m.

Type: . MMSI: 367409290.

Date/timePositionNaut miles runAvg speedWind from/ knotsBaromVisibWave heightAir tempDewpointWater temp
2017-Sep-21 03:47N 40°48' W 073°49'3 9.1
2017-Sep-21 03:29N 40°48' W 073°53'4 7.2
2017-Sep-21 02:58N 40°46' W 073°57'4 8.4
2017-Sep-21 02:30N 40°42' W 073°59'4 7.7
2017-Sep-21 02:00N 40°40' W 074°03'0 0.7
2017-Sep-21 01:30N 40°40' W 074°03'0 0.1
2017-Sep-21 01:00N 40°40' W 074°03'1 1.8
2017-Sep-21 00:30N 40°39' W 074°03'3 6.4
2017-Sep-21 00:00N 40°36' W 074°01'0 0.1
2017-Sep-20 23:30N 40°36' W 074°01'0 0.0
2017-Sep-20 23:00N 40°36' W 074°01'0 0.2
2017-Sep-20 22:30N 40°36' W 074°01'0 0.2
2017-Sep-20 22:00N 40°36' W 074°01'0 0.1
2017-Sep-20 21:30N 40°36' W 074°01'0 0.1
2017-Sep-20 21:00N 40°36' W 074°01'0 0.0
2017-Sep-20 20:30N 40°36' W 074°01'0 0.0
2017-Sep-20 20:00N 40°36' W 074°01'0 0.0
2017-Sep-20 19:30N 40°36' W 074°01'0 0.0
2017-Sep-20 19:00N 40°36' W 074°01'2 4.2
2017-Sep-20 18:30N 40°37' W 074°03'4 8.8
2017-Sep-20 18:01N 40°39' W 074°09'3 6.2
2017-Sep-20 17:30N 40°37' W 074°12'4 6.3
2017-Sep-20 16:54N 40°33' W 074°14'0 0.4
2017-Sep-20 16:30N 40°34' W 074°14'0 0.0
2017-Sep-20 16:00N 40°34' W 074°14'0 0.0
2017-Sep-20 15:29N 40°34' W 074°14'0 0.0
2017-Sep-20 14:51N 40°34' W 074°14'0 0.0
2017-Sep-20 14:00N 40°34' W 074°14'0 0.0
2017-Sep-20 13:30N 40°34' W 074°14'0 0.0
2017-Sep-20 13:00N 40°34' W 074°14'0 0.0
2017-Sep-20 12:23N 40°34' W 074°14'0 0.0
2017-Sep-20 11:59N 40°34' W 074°14'0 0.0
2017-Sep-20 11:29N 40°34' W 074°14'0 0.0
2017-Sep-20 11:00N 40°34' W 074°14'0 0.0
2017-Sep-20 10:30N 40°34' W 074°14'0 0.0
2017-Sep-20 10:00N 40°34' W 074°14'0 0.0
2017-Sep-20 09:30N 40°34' W 074°14'0 0.0
2017-Sep-20 09:00N 40°34' W 074°14'0 0.0
2017-Sep-20 08:30N 40°34' W 074°14'0 0.0
2017-Sep-20 08:00N 40°34' W 074°14'0 0.0
2017-Sep-20 07:30N 40°34' W 074°14'0 0.0
2017-Sep-20 07:00N 40°34' W 074°14'0 0.0
2017-Sep-20 06:30N 40°34' W 074°14'0 0.0
2017-Sep-20 06:00N 40°34' W 074°14'0 0.0
2017-Sep-20 05:30N 40°34' W 074°14'0 0.0
2017-Sep-20 05:00N 40°34' W 074°14'0 0.0
2017-Sep-20 04:29N 40°34' W 074°14'0 0.0
2017-Sep-20 04:00N 40°34' W 074°14'0 0.0
2017-Sep-20 03:30N 40°34' W 074°14'0 0.0
2017-Sep-20 02:58N 40°34' W 074°14'0 0.0
2017-Sep-20 02:28N 40°34' W 074°14'0 0.0
2017-Sep-20 02:00N 40°34' W 074°14'0 0.0
2017-Sep-20 01:30N 40°34' W 074°14'0 0.0
2017-Sep-20 01:00N 40°34' W 074°14'0 0.0
2017-Sep-20 00:30N 40°34' W 074°14'0 0.0
2017-Sep-20 00:00N 40°34' W 074°14'0 0.0
2017-Sep-19 23:28N 40°34' W 074°14'0 0.0
2017-Sep-19 22:59N 40°34' W 074°14'0 0.0
2017-Sep-19 22:29N 40°34' W 074°14'0 0.0
2017-Sep-19 21:59N 40°34' W 074°14'0 0.0
2017-Sep-19 21:30N 40°34' W 074°14'0 0.0
2017-Sep-19 21:00N 40°34' W 074°14'0 0.0
2017-Sep-19 20:30N 40°34' W 074°14'0 0.0
2017-Sep-19 19:58N 40°34' W 074°14'0 0.0
2017-Sep-19 19:30N 40°34' W 074°14'0 0.0
2017-Sep-19 19:00N 40°33' W 074°14'1 1.2
2017-Sep-19 18:23N 40°33' W 074°13'4 9.3
2017-Sep-19 18:00N 40°37' W 074°12'4 7.7
2017-Sep-19 17:30N 40°39' W 074°08'4 9.0
2017-Sep-19 17:00N 40°41' W 074°03'611.9
2017-Sep-19 16:30N 40°46' W 074°00'2 4.0
2017-Sep-19 16:00N 40°48' W 073°59'0 0.0
2017-Sep-19 15:30N 40°48' W 073°59'0 0.3
2017-Sep-19 15:00N 40°48' W 073°59'0 0.1
2017-Sep-19 14:30N 40°48' W 073°59'0 0.1
2017-Sep-19 14:00N 40°48' W 073°59'0 0.0
2017-Sep-19 13:30N 40°48' W 073°59'0 0.0
2017-Sep-19 13:00N 40°48' W 073°59'0 0.0
2017-Sep-19 12:30N 40°48' W 073°59'0 0.0
2017-Sep-19 12:00N 40°48' W 073°59'0 0.1
2017-Sep-19 11:30N 40°48' W 073°59'0 0.1
2017-Sep-19 11:00N 40°48' W 073°59'0 0.2
2017-Sep-19 10:30N 40°48' W 073°59'0 0.2
2017-Sep-19 10:00N 40°48' W 073°59'0 0.0
2017-Sep-19 09:30N 40°48' W 073°59'0 0.0
2017-Sep-19 09:00N 40°48' W 073°59'0 0.0
2017-Sep-19 08:30N 40°48' W 073°59'0 0.0
2017-Sep-19 08:00N 40°48' W 073°59'0 0.0
2017-Sep-19 07:30N 40°48' W 073°59'0 0.0
2017-Sep-19 07:00N 40°48' W 073°59'0 0.0
2017-Sep-19 06:30N 40°48' W 073°59'0 0.0
2017-Sep-19 06:00N 40°48' W 073°59'0 0.0
2017-Sep-19 05:30N 40°48' W 073°59'0 0.0
2017-Sep-19 05:00N 40°48' W 073°59'0 0.0
2017-Sep-19 04:30N 40°48' W 073°59'0 0.0
2017-Sep-19 04:00N 40°48' W 073°59'0 0.0
2017-Sep-19 03:30N 40°48' W 073°59'2 4.1
2017-Sep-19 03:00N 40°50' W 073°58'510.1
2017-Sep-19 02:30N 40°55' W 073°55'2 0.0
2017-Sep-17 01:56N 40°56' W 073°55'4 9.2
2017-Sep-17 01:30N 40°52' W 073°56'5 9.7
2017-Sep-17 01:00N 40°48' W 073°59'510.1
2017-Sep-17 00:30N 40°43' W 074°01'5 9.3
2017-Sep-17 00:01N 40°39' W 074°03'5 9.5
2017-Sep-16 23:30N 40°39' W 074°10'4 6.7
2017-Sep-16 22:58N 40°36' W 074°12'1 0.1
2017-Sep-16 14:39N 40°35' W 074°13'0 0.0
2017-Sep-16 14:28N 40°35' W 074°13'0 0.0
2017-Sep-16 13:45N 40°35' W 074°13'0 0.0
2017-Sep-16 13:29N 40°35' W 074°13'0 0.0
2017-Sep-16 12:28N 40°35' W 074°13'0 0.0
2017-Sep-16 04:48N 40°35' W 074°13'1 2.4
2017-Sep-16 04:26N 40°36' W 074°12'4 8.4
2017-Sep-16 04:01N 40°39' W 074°10'5 9.8
2017-Sep-16 03:30N 40°39' W 074°04'1 3.0
2017-Sep-16 03:00N 40°40' W 074°02'0 0.0
2017-Sep-16 02:31N 40°40' W 074°02'0 0.0
2017-Sep-16 02:01N 40°40' W 074°02'0 0.0
2017-Sep-16 01:30N 40°40' W 074°02'0 0.0
2017-Sep-16 01:00N 40°40' W 074°02'0 0.0
2017-Sep-16 00:31N 40°40' W 074°02'0 0.0
2017-Sep-16 00:01N 40°40' W 074°02'0 0.0
2017-Sep-15 23:31N 40°40' W 074°02'0 0.2
2017-Sep-15 23:01N 40°40' W 074°02'0 0.1
2017-Sep-15 22:31N 40°40' W 074°02'0 0.0
2017-Sep-15 22:01N 40°40' W 074°02'0 0.0
2017-Sep-15 21:31N 40°40' W 074°02'0 0.1
2017-Sep-15 21:00N 40°40' W 074°02'0 0.0
2017-Sep-15 20:31N 40°40' W 074°02'0 0.0
2017-Sep-15 20:00N 40°40' W 074°02'0 0.0
2017-Sep-15 19:31N 40°40' W 074°02'0 0.0
2017-Sep-15 19:01N 40°40' W 074°02'0 0.0
2017-Sep-15 18:31N 40°40' W 074°02'0 0.1
2017-Sep-15 18:01N 40°40' W 074°02'0 0.2
2017-Sep-15 17:31N 40°40' W 074°02'0 0.0
2017-Sep-15 17:01N 40°40' W 074°02'0 0.0
2017-Sep-15 16:31N 40°40' W 074°02'0 0.1
2017-Sep-15 16:01N 40°40' W 074°02'0 0.1
2017-Sep-15 15:31N 40°40' W 074°02'0 0.0
2017-Sep-15 15:01N 40°40' W 074°02'0 0.0
2017-Sep-15 14:31N 40°40' W 074°02'0 0.0
2017-Sep-15 14:01N 40°40' W 074°02'0 0.0
2017-Sep-15 13:31N 40°40' W 074°02'0 0.0
2017-Sep-15 13:01N 40°40' W 074°02'0 0.0
2017-Sep-15 12:31N 40°40' W 074°02'0 0.0
2017-Sep-15 12:01N 40°40' W 074°02'0 0.0
2017-Sep-15 11:31N 40°40' W 074°02'0 0.1
2017-Sep-15 11:00N 40°40' W 074°02'0 0.2
2017-Sep-15 10:30N 40°40' W 074°02'0 0.1
2017-Sep-15 10:01N 40°40' W 074°02'0 0.1
2017-Sep-15 09:30N 40°40' W 074°02'2 3.0
2017-Sep-15 09:00N 40°39' W 074°03'4 7.3
2017-Sep-15 08:31N 40°39' W 074°08'3 5.4
2017-Sep-15 08:00N 40°41' W 074°08'1 3.0
2017-Sep-15 07:31N 40°43' W 074°07'0 0.5
2017-Sep-15 07:01N 40°43' W 074°07'0 0.1
2017-Sep-15 06:30N 40°43' W 074°07'3 5.4
2017-Sep-15 06:00N 40°40' W 074°08'2 3.8
2017-Sep-15 05:31N 40°38' W 074°08'0 0.0
2017-Sep-15 05:00N 40°38' W 074°08'0 0.0
2017-Sep-15 04:31N 40°38' W 074°08'0 0.0
2017-Sep-15 04:00N 40°38' W 074°08'0 0.0
2017-Sep-15 03:30N 40°38' W 074°08'0 0.0
2017-Sep-15 03:01N 40°38' W 074°08'0 0.0
2017-Sep-15 02:31N 40°38' W 074°08'0 0.0
2017-Sep-15 02:01N 40°38' W 074°08'0 0.0
2017-Sep-15 01:31N 40°38' W 074°08'0 0.0
2017-Sep-15 01:00N 40°38' W 074°08'0 0.0
2017-Sep-15 00:31N 40°38' W 074°08'0 0.0
2017-Sep-15 00:00N 40°38' W 074°08'0 0.0
2017-Sep-14 23:30N 40°38' W 074°08'0 0.0
2017-Sep-14 23:01N 40°38' W 074°08'0 0.0
2017-Sep-14 22:30N 40°38' W 074°08'0 0.0
2017-Sep-14 22:01N 40°38' W 074°08'0 0.0
2017-Sep-14 21:31N 40°38' W 074°08'0 0.0
2017-Sep-14 21:01N 40°38' W 074°08'0 0.0
2017-Sep-14 20:30N 40°38' W 074°08'0 0.0
2017-Sep-14 20:00N 40°38' W 074°08'0 0.0
2017-Sep-14 19:31N 40°38' W 074°08'0 0.0
2017-Sep-14 19:01N 40°38' W 074°08'2 3.6
2017-Sep-14 18:30N 40°40' W 074°08'3 5.8
2017-Sep-14 18:01N 40°43' W 074°07'0 0.8
2017-Sep-14 17:30N 40°43' W 074°07'3 6.2
2017-Sep-14 17:00N 40°40' W 074°09'3 5.9
2017-Sep-14 16:30N 40°39' W 074°05'2 3.6
2017-Sep-14 16:01N 40°39' W 074°02'0 0.1
2017-Sep-14 15:31N 40°39' W 074°02'0 0.1
2017-Sep-14 15:01N 40°39' W 074°02'0 0.1
2017-Sep-14 14:31N 40°39' W 074°02'0 0.0
2017-Sep-14 14:01N 40°39' W 074°02'0 0.0
2017-Sep-14 13:31N 40°39' W 074°02'0 0.0
2017-Sep-14 13:00N 40°39' W 074°02'0 0.0
2017-Sep-14 12:31N 40°39' W 074°02'0 0.4
2017-Sep-14 12:01N 40°39' W 074°03'4 7.7
2017-Sep-14 11:31N 40°39' W 074°08'4 7.5
2017-Sep-14 11:00N 40°37' W 074°12'1 1.3
2017-Sep-14 10:30N 40°36' W 074°12'0 0.0
2017-Sep-14 10:00N 40°36' W 074°12'0 0.0
2017-Sep-14 09:30N 40°36' W 074°12'0 0.0
2017-Sep-14 09:00N 40°36' W 074°12'0 0.0
2017-Sep-14 08:31N 40°36' W 074°12'0 0.0
2017-Sep-14 08:00N 40°36' W 074°12'0 0.0
2017-Sep-14 07:30N 40°36' W 074°12'0 0.0
2017-Sep-14 07:00N 40°36' W 074°12'0 0.0
2017-Sep-14 06:30N 40°36' W 074°12'0 0.0
2017-Sep-14 06:00N 40°36' W 074°12'0 0.0
2017-Sep-14 05:29N 40°36' W 074°12'0 0.0
2017-Sep-14 05:00N 40°36' W 074°12'0 0.0
2017-Sep-14 04:30N 40°36' W 074°12'0 0.0
2017-Sep-14 04:00N 40°36' W 074°12'0 0.0
2017-Sep-14 03:30N 40°36' W 074°12'0 0.0
2017-Sep-14 03:01N 40°36' W 074°12'0 0.0
2017-Sep-14 02:30N 40°36' W 074°12'0 0.0
2017-Sep-14 02:00N 40°36' W 074°12'0 0.0
2017-Sep-14 01:30N 40°36' W 074°12'0 0.0
2017-Sep-14 01:00N 40°36' W 074°12'0 0.0
2017-Sep-14 00:30N 40°36' W 074°12'0 0.0
2017-Sep-14 00:00N 40°36' W 074°12'0 0.0
2017-Sep-13 23:30N 40°36' W 074°12'0 0.0
2017-Sep-13 23:00N 40°36' W 074°12'0 0.0
2017-Sep-13 22:30N 40°36' W 074°12'0 0.0
2017-Sep-13 22:00N 40°36' W 074°12'0 0.0
2017-Sep-13 21:30N 40°36' W 074°12'0 0.0
2017-Sep-13 21:00N 40°36' W 074°12'0 0.0
2017-Sep-13 20:30N 40°36' W 074°12'0 0.0
2017-Sep-13 19:59N 40°36' W 074°12'0 0.0
2017-Sep-13 19:30N 40°36' W 074°12'0 0.0
2017-Sep-13 18:37N 40°36' W 074°12'0 0.0
2017-Sep-13 18:28N 40°36' W 074°12'0 0.0
2017-Sep-13 18:00N 40°36' W 074°12'1 2.5
2017-Sep-13 17:31N 40°38' W 074°12'4 8.3
2017-Sep-13 17:01N 40°39' W 074°07'4 7.1
2017-Sep-13 16:31N 40°40' W 074°02'0 0.0
2017-Sep-13 16:01N 40°40' W 074°02'0 0.0
2017-Sep-13 15:31N 40°40' W 074°02'0 0.1
2017-Sep-13 15:00N 40°39' W 074°02'0 0.2
2017-Sep-13 14:30N 40°39' W 074°02'0 0.0
2017-Sep-13 14:01N 40°39' W 074°02'0 0.0
2017-Sep-13 13:31N 40°39' W 074°02'0 0.0
2017-Sep-13 13:01N 40°39' W 074°02'0 0.0
2017-Sep-13 12:30N 40°39' W 074°02'0 0.0
2017-Sep-13 12:01N 40°39' W 074°02'0 0.0
2017-Sep-13 11:31N 40°39' W 074°02'0 0.0
2017-Sep-13 11:01N 40°39' W 074°02'0 0.0
2017-Sep-13 10:31N 40°39' W 074°02'0 0.0
2017-Sep-13 10:01N 40°39' W 074°02'0 0.0
2017-Sep-13 09:30N 40°39' W 074°02'0 0.0
2017-Sep-13 09:01N 40°39' W 074°02'0 0.1
2017-Sep-13 08:31N 40°39' W 074°02'0 0.1
2017-Sep-13 08:01N 40°39' W 074°02'0 0.1
2017-Sep-13 07:30N 40°40' W 074°02'0 0.1
2017-Sep-13 07:00N 40°40' W 074°02'0 0.0
2017-Sep-13 06:31N 40°40' W 074°02'0 0.0
2017-Sep-13 06:01N 40°40' W 074°02'0 0.0
2017-Sep-13 05:31N 40°40' W 074°02'0 0.0
2017-Sep-13 05:00N 40°40' W 074°02'0 0.1
2017-Sep-13 04:31N 40°40' W 074°02'0 0.0
2017-Sep-13 04:01N 40°40' W 074°02'0 0.0
2017-Sep-13 03:31N 40°40' W 074°02'0 0.1
2017-Sep-13 03:00N 40°40' W 074°02'0 0.2
2017-Sep-13 02:30N 40°39' W 074°02'0 0.0
2017-Sep-13 02:00N 40°39' W 074°02'0 0.0
2017-Sep-13 01:31N 40°39' W 074°02'0 0.0
2017-Sep-13 01:01N 40°39' W 074°02'0 0.0
2017-Sep-13 00:31N 40°39' W 074°02'0 0.0
2017-Sep-13 00:00N 40°39' W 074°02'0 0.0
2017-Sep-12 23:30N 40°39' W 074°02'0 0.0
2017-Sep-12 23:01N 40°39' W 074°02'0 0.0
2017-Sep-12 22:31N 40°39' W 074°02'0 0.0
2017-Sep-12 22:00N 40°39' W 074°02'0 0.0
2017-Sep-12 21:31N 40°39' W 074°02'0 0.0
2017-Sep-12 21:01N 40°39' W 074°02'0 0.1
2017-Sep-12 20:30N 40°39' W 074°02'0 0.1
2017-Sep-12 20:01N 40°39' W 074°02'0 0.1
2017-Sep-12 19:31N 40°40' W 074°02'0 0.0
2017-Sep-12 19:01N 40°40' W 074°02'0 0.1
2017-Sep-12 18:31N 40°40' W 074°02'0 0.0
2017-Sep-12 18:01N 40°40' W 074°02'0 0.0
2017-Sep-12 17:31N 40°40' W 074°02'0 0.0
2017-Sep-12 17:01N 40°40' W 074°02'0 0.0
2017-Sep-12 16:31N 40°40' W 074°02'0 0.0
2017-Sep-12 16:00N 40°40' W 074°02'0 0.0
2017-Sep-12 15:31N 40°40' W 074°02'0 0.0
2017-Sep-12 15:01N 40°40' W 074°02'0 0.1
2017-Sep-12 14:31N 40°39' W 074°02'0 0.1
2017-Sep-12 14:01N 40°39' W 074°02'0 0.1
2017-Sep-12 13:31N 40°39' W 074°02'0 0.1
2017-Sep-12 13:01N 40°39' W 074°02'0 0.0
2017-Sep-12 12:30N 40°39' W 074°02'0 0.0
2017-Sep-12 12:01N 40°39' W 074°02'0 0.0
2017-Sep-12 11:31N 40°39' W 074°02'0 0.0
2017-Sep-12 11:00N 40°39' W 074°02'0 0.0
2017-Sep-12 10:31N 40°39' W 074°02'0 0.0
2017-Sep-12 10:00N 40°39' W 074°02'0 0.0
2017-Sep-12 09:31N 40°39' W 074°02'0 0.0
2017-Sep-12 09:01N 40°39' W 074°02'0 0.0
2017-Sep-12 08:31N 40°39' W 074°02'0 0.0
2017-Sep-12 08:00N 40°39' W 074°02'0 0.0
2017-Sep-12 07:31N 40°39' W 074°02'0 0.2
2017-Sep-12 07:01N 40°39' W 074°02'0 0.1
2017-Sep-12 06:31N 40°40' W 074°02'0 0.0
2017-Sep-12 06:01N 40°40' W 074°02'0 0.0
2017-Sep-12 05:31N 40°40' W 074°02'0 0.0
2017-Sep-12 05:01N 40°40' W 074°02'0 0.0
2017-Sep-12 04:31N 40°40' W 074°02'0 0.0
2017-Sep-12 04:01N 40°40' W 074°02'0 0.0
2017-Sep-12 03:30N 40°40' W 074°02'0 0.0
2017-Sep-12 02:30N 40°40' W 074°02'0 0.0
2017-Sep-12 02:01N 40°40' W 074°02'0 0.1
2017-Sep-12 01:31N 40°39' W 074°02'0 0.1
2017-Sep-12 01:01N 40°39' W 074°02'0 0.1
2017-Sep-12 00:31N 40°39' W 074°02'0 0.0
2017-Sep-12 00:00N 40°39' W 074°02'0 0.0
2017-Sep-11 23:31N 40°39' W 074°02'0 0.0
2017-Sep-11 23:01N 40°39' W 074°02'0 0.0
2017-Sep-11 22:30N 40°39' W 074°02'0 0.0
2017-Sep-11 22:00N 40°39' W 074°02'0 0.1
2017-Sep-11 21:30N 40°39' W 074°02'0 0.0
2017-Sep-11 21:00N 40°39' W 074°02'0 0.0
2017-Sep-11 20:31N 40°39' W 074°02'0 0.0
2017-Sep-11 20:01N 40°39' W 074°02'0 0.0
2017-Sep-11 19:31N 40°39' W 074°02'0 0.1
2017-Sep-11 19:01N 40°39' W 074°02'0 0.2
2017-Sep-11 18:31N 40°40' W 074°02'0 0.1
2017-Sep-11 18:01N 40°40' W 074°02'0 0.4
2017-Sep-11 17:31N 40°39' W 074°03'3 6.1
2017-Sep-11 17:01N 40°39' W 074°06'2 3.9
2017-Sep-11 16:31N 40°40' W 074°08'2 4.6
2017-Sep-11 16:01N 40°43' W 074°07'0 1.0
2017-Sep-11 15:31N 40°43' W 074°07'0 0.1
2017-Sep-11 15:00N 40°43' W 074°07'0 0.2
2017-Sep-11 14:30N 40°43' W 074°07'0 0.0
2017-Sep-11 14:01N 40°43' W 074°07'1 1.5
2017-Sep-11 13:31N 40°42' W 074°07'4 7.1
2017-Sep-11 13:00N 40°39' W 074°08'0 0.6
2017-Sep-11 12:31N 40°38' W 074°08'0 0.0
2017-Sep-11 12:01N 40°38' W 074°08'0 0.0
2017-Sep-11 11:30N 40°38' W 074°08'0 0.0
2017-Sep-11 11:01N 40°38' W 074°08'0 0.0
2017-Sep-11 10:30N 40°38' W 074°08'0 0.0
2017-Sep-11 10:00N 40°38' W 074°08'0 0.0
2017-Sep-11 09:31N 40°38' W 074°08'0 0.0
2017-Sep-11 08:59N 40°38' W 074°08'0 0.0
2017-Sep-11 08:30N 40°38' W 074°08'0 0.0
2017-Sep-11 08:00N 40°38' W 074°08'0 0.0
2017-Sep-11 07:31N 40°38' W 074°08'0 0.0
2017-Sep-11 06:57N 40°38' W 074°08'0 0.0
2017-Sep-11 06:30N 40°38' W 074°08'0 0.0
2017-Sep-11 06:00N 40°38' W 074°08'0 0.0
2017-Sep-11 05:30N 40°38' W 074°08'0 0.0
2017-Sep-11 05:00N 40°38' W 074°08'2 3.4
2017-Sep-11 04:31N 40°40' W 074°08'3 5.9
2017-Sep-11 04:00N 40°43' W 074°07'  
Track history (hours):
 
Tides and Currents Weather Stations Pressure Air Temp Water Temp Dewpoint Dewpoint Depression Visibility Wind Speed Wind Dir Waves Ship Positions

Timothy L. Reinauer

Owner: H.A. Reineauer, Staten Island, NY. More information available from US FCC via Universal Licensing System.

Last reported at 2017-Sep-21 03:47 UTC. Time now 2017-Sep-22 18:55 UTC.
Position N 40°48' W 073°49'.

Length 137 m.

Type: . MMSI: 367409290.

Date/timePositionNaut miles runAvg speedWind from/ knotsBaromVisibWave heightAir tempDewpointWater temp
2017-Sep-21 03:47N 40°48' W 073°49'3 9.1
2017-Sep-21 03:29N 40°48' W 073°53'4 7.2
2017-Sep-21 02:58N 40°46' W 073°57'4 8.4
2017-Sep-21 02:30N 40°42' W 073°59'4 7.7
2017-Sep-21 02:00N 40°40' W 074°03'0 0.7
2017-Sep-21 01:30N 40°40' W 074°03'0 0.1
2017-Sep-21 01:00N 40°40' W 074°03'1 1.8
2017-Sep-21 00:30N 40°39' W 074°03'3 6.4
2017-Sep-21 00:00N 40°36' W 074°01'0 0.1
2017-Sep-20 23:30N 40°36' W 074°01'0 0.0
2017-Sep-20 23:00N 40°36' W 074°01'0 0.2
2017-Sep-20 22:30N 40°36' W 074°01'0 0.2
2017-Sep-20 22:00N 40°36' W 074°01'0 0.1
2017-Sep-20 21:30N 40°36' W 074°01'0 0.1
2017-Sep-20 21:00N 40°36' W 074°01'0 0.0
2017-Sep-20 20:30N 40°36' W 074°01'0 0.0
2017-Sep-20 20:00N 40°36' W 074°01'0 0.0
2017-Sep-20 19:30N 40°36' W 074°01'0 0.0
2017-Sep-20 19:00N 40°36' W 074°01'2 4.2
2017-Sep-20 18:30N 40°37' W 074°03'4 8.8
2017-Sep-20 18:01N 40°39' W 074°09'3 6.2
2017-Sep-20 17:30N 40°37' W 074°12'4 6.3
2017-Sep-20 16:54N 40°33' W 074°14'0 0.4
2017-Sep-20 16:30N 40°34' W 074°14'0 0.0
2017-Sep-20 16:00N 40°34' W 074°14'0 0.0
2017-Sep-20 15:29N 40°34' W 074°14'0 0.0
2017-Sep-20 14:51N 40°34' W 074°14'0 0.0
2017-Sep-20 14:00N 40°34' W 074°14'0 0.0
2017-Sep-20 13:30N 40°34' W 074°14'0 0.0
2017-Sep-20 13:00N 40°34' W 074°14'0 0.0
2017-Sep-20 12:23N 40°34' W 074°14'0 0.0
2017-Sep-20 11:59N 40°34' W 074°14'0 0.0
2017-Sep-20 11:29N 40°34' W 074°14'0 0.0
2017-Sep-20 11:00N 40°34' W 074°14'0 0.0
2017-Sep-20 10:30N 40°34' W 074°14'0 0.0
2017-Sep-20 10:00N 40°34' W 074°14'0 0.0
2017-Sep-20 09:30N 40°34' W 074°14'0 0.0
2017-Sep-20 09:00N 40°34' W 074°14'0 0.0
2017-Sep-20 08:30N 40°34' W 074°14'0 0.0
2017-Sep-20 08:00N 40°34' W 074°14'0 0.0
2017-Sep-20 07:30N 40°34' W 074°14'0 0.0
2017-Sep-20 07:00N 40°34' W 074°14'0 0.0
2017-Sep-20 06:30N 40°34' W 074°14'0 0.0
2017-Sep-20 06:00N 40°34' W 074°14'0 0.0
2017-Sep-20 05:30N 40°34' W 074°14'0 0.0
2017-Sep-20 05:00N 40°34' W 074°14'0 0.0
2017-Sep-20 04:29N 40°34' W 074°14'0 0.0
2017-Sep-20 04:00N 40°34' W 074°14'0 0.0
2017-Sep-20 03:30N 40°34' W 074°14'0 0.0
2017-Sep-20 02:58N 40°34' W 074°14'0 0.0
2017-Sep-20 02:28N 40°34' W 074°14'0 0.0
2017-Sep-20 02:00N 40°34' W 074°14'0 0.0
2017-Sep-20 01:30N 40°34' W 074°14'0 0.0
2017-Sep-20 01:00N 40°34' W 074°14'0 0.0
2017-Sep-20 00:30N 40°34' W 074°14'0 0.0
2017-Sep-20 00:00N 40°34' W 074°14'0 0.0
2017-Sep-19 23:28N 40°34' W 074°14'0 0.0
2017-Sep-19 22:59N 40°34' W 074°14'0 0.0
2017-Sep-19 22:29N 40°34' W 074°14'0 0.0
2017-Sep-19 21:59N 40°34' W 074°14'0 0.0
2017-Sep-19 21:30N 40°34' W 074°14'0 0.0
2017-Sep-19 21:00N 40°34' W 074°14'0 0.0
2017-Sep-19 20:30N 40°34' W 074°14'0 0.0
2017-Sep-19 19:58N 40°34' W 074°14'0 0.0
2017-Sep-19 19:30N 40°34' W 074°14'0 0.0
2017-Sep-19 19:00N 40°33' W 074°14'1 1.2
2017-Sep-19 18:23N 40°33' W 074°13'4 9.3
2017-Sep-19 18:00N 40°37' W 074°12'4 7.7
2017-Sep-19 17:30N 40°39' W 074°08'4 9.0
2017-Sep-19 17:00N 40°41' W 074°03'611.9
2017-Sep-19 16:30N 40°46' W 074°00'2 4.0
2017-Sep-19 16:00N 40°48' W 073°59'0 0.0
2017-Sep-19 15:30N 40°48' W 073°59'0 0.3
2017-Sep-19 15:00N 40°48' W 073°59'0 0.1
2017-Sep-19 14:30N 40°48' W 073°59'0 0.1
2017-Sep-19 14:00N 40°48' W 073°59'0 0.0
2017-Sep-19 13:30N 40°48' W 073°59'0 0.0
2017-Sep-19 13:00N 40°48' W 073°59'0 0.0
2017-Sep-19 12:30N 40°48' W 073°59'0 0.0
2017-Sep-19 12:00N 40°48' W 073°59'0 0.1
2017-Sep-19 11:30N 40°48' W 073°59'0 0.1
2017-Sep-19 11:00N 40°48' W 073°59'0 0.2
2017-Sep-19 10:30N 40°48' W 073°59'0 0.2
2017-Sep-19 10:00N 40°48' W 073°59'0 0.0
2017-Sep-19 09:30N 40°48' W 073°59'0 0.0
2017-Sep-19 09:00N 40°48' W 073°59'0 0.0
2017-Sep-19 08:30N 40°48' W 073°59'0 0.0
2017-Sep-19 08:00N 40°48' W 073°59'0 0.0
2017-Sep-19 07:30N 40°48' W 073°59'0 0.0
2017-Sep-19 07:00N 40°48' W 073°59'0 0.0
2017-Sep-19 06:30N 40°48' W 073°59'0 0.0
2017-Sep-19 06:00N 40°48' W 073°59'0 0.0
2017-Sep-19 05:30N 40°48' W 073°59'0 0.0
2017-Sep-19 05:00N 40°48' W 073°59'0 0.0
2017-Sep-19 04:30N 40°48' W 073°59'0 0.0
2017-Sep-19 04:00N 40°48' W 073°59'0 0.0
2017-Sep-19 03:30N 40°48' W 073°59'2 4.1
2017-Sep-19 03:00N 40°50' W 073°58'510.1
2017-Sep-19 02:30N 40°55' W 073°55'2 0.0
2017-Sep-17 01:56N 40°56' W 073°55'4 9.2
2017-Sep-17 01:30N 40°52' W 073°56'5 9.7
2017-Sep-17 01:00N 40°48' W 073°59'510.1
2017-Sep-17 00:30N 40°43' W 074°01'5 9.3
2017-Sep-17 00:01N 40°39' W 074°03'5 9.5
2017-Sep-16 23:30N 40°39' W 074°10'4 6.7
2017-Sep-16 22:58N 40°36' W 074°12'1 0.1
2017-Sep-16 14:39N 40°35' W 074°13'0 0.0
2017-Sep-16 14:28N 40°35' W 074°13'0 0.0
2017-Sep-16 13:45N 40°35' W 074°13'0 0.0
2017-Sep-16 13:29N 40°35' W 074°13'0 0.0
2017-Sep-16 12:28N 40°35' W 074°13'0 0.0
2017-Sep-16 04:48N 40°35' W 074°13'1 2.4
2017-Sep-16 04:26N 40°36' W 074°12'4 8.4
2017-Sep-16 04:01N 40°39' W 074°10'5 9.8
2017-Sep-16 03:30N 40°39' W 074°04'1 3.0
2017-Sep-16 03:00N 40°40' W 074°02'0 0.0
2017-Sep-16 02:31N 40°40' W 074°02'0 0.0
2017-Sep-16 02:01N 40°40' W 074°02'0 0.0
2017-Sep-16 01:30N 40°40' W 074°02'0 0.0
2017-Sep-16 01:00N 40°40' W 074°02'0 0.0
2017-Sep-16 00:31N 40°40' W 074°02'0 0.0
2017-Sep-16 00:01N 40°40' W 074°02'0 0.0
2017-Sep-15 23:31N 40°40' W 074°02'0 0.2
2017-Sep-15 23:01N 40°40' W 074°02'0 0.1
2017-Sep-15 22:31N 40°40' W 074°02'0 0.0
2017-Sep-15 22:01N 40°40' W 074°02'0 0.0
2017-Sep-15 21:31N 40°40' W 074°02'0 0.1
2017-Sep-15 21:00N 40°40' W 074°02'0 0.0
2017-Sep-15 20:31N 40°40' W 074°02'0 0.0
2017-Sep-15 20:00N 40°40' W 074°02'0 0.0
2017-Sep-15 19:31N 40°40' W 074°02'0 0.0
2017-Sep-15 19:01N 40°40' W 074°02'0 0.0
2017-Sep-15 18:31N 40°40' W 074°02'0 0.1
2017-Sep-15 18:01N 40°40' W 074°02'0 0.2
2017-Sep-15 17:31N 40°40' W 074°02'0 0.0
2017-Sep-15 17:01N 40°40' W 074°02'0 0.0
2017-Sep-15 16:31N 40°40' W 074°02'0 0.1
2017-Sep-15 16:01N 40°40' W 074°02'0 0.1
2017-Sep-15 15:31N 40°40' W 074°02'0 0.0
2017-Sep-15 15:01N 40°40' W 074°02'0 0.0
2017-Sep-15 14:31N 40°40' W 074°02'0 0.0
2017-Sep-15 14:01N 40°40' W 074°02'0 0.0
2017-Sep-15 13:31N 40°40' W 074°02'0 0.0
2017-Sep-15 13:01N 40°40' W 074°02'0 0.0
2017-Sep-15 12:31N 40°40' W 074°02'0 0.0
2017-Sep-15 12:01N 40°40' W 074°02'0 0.0
2017-Sep-15 11:31N 40°40' W 074°02'0 0.1
2017-Sep-15 11:00N 40°40' W 074°02'0 0.2
2017-Sep-15 10:30N 40°40' W 074°02'0 0.1
2017-Sep-15 10:01N 40°40' W 074°02'0 0.1
2017-Sep-15 09:30N 40°40' W 074°02'2 3.0
2017-Sep-15 09:00N 40°39' W 074°03'4 7.3
2017-Sep-15 08:31N 40°39' W 074°08'3 5.4
2017-Sep-15 08:00N 40°41' W 074°08'1 3.0
2017-Sep-15 07:31N 40°43' W 074°07'0 0.5
2017-Sep-15 07:01N 40°43' W 074°07'0 0.1
2017-Sep-15 06:30N 40°43' W 074°07'3 5.4
2017-Sep-15 06:00N 40°40' W 074°08'2 3.8
2017-Sep-15 05:31N 40°38' W 074°08'0 0.0
2017-Sep-15 05:00N 40°38' W 074°08'0 0.0
2017-Sep-15 04:31N 40°38' W 074°08'0 0.0
2017-Sep-15 04:00N 40°38' W 074°08'0 0.0
2017-Sep-15 03:30N 40°38' W 074°08'0 0.0
2017-Sep-15 03:01N 40°38' W 074°08'0 0.0
2017-Sep-15 02:31N 40°38' W 074°08'0 0.0
2017-Sep-15 02:01N 40°38' W 074°08'0 0.0
2017-Sep-15 01:31N 40°38' W 074°08'0 0.0
2017-Sep-15 01:00N 40°38' W 074°08'0 0.0
2017-Sep-15 00:31N 40°38' W 074°08'0 0.0
2017-Sep-15 00:00N 40°38' W 074°08'0 0.0
2017-Sep-14 23:30N 40°38' W 074°08'0 0.0
2017-Sep-14 23:01N 40°38' W 074°08'0 0.0
2017-Sep-14 22:30N 40°38' W 074°08'0 0.0
2017-Sep-14 22:01N 40°38' W 074°08'0 0.0
2017-Sep-14 21:31N 40°38' W 074°08'0 0.0
2017-Sep-14 21:01N 40°38' W 074°08'0 0.0
2017-Sep-14 20:30N 40°38' W 074°08'0 0.0
2017-Sep-14 20:00N 40°38' W 074°08'0 0.0
2017-Sep-14 19:31N 40°38' W 074°08'0 0.0
2017-Sep-14 19:01N 40°38' W 074°08'2 3.6
2017-Sep-14 18:30N 40°40' W 074°08'3 5.8
2017-Sep-14 18:01N 40°43' W 074°07'0 0.8
2017-Sep-14 17:30N 40°43' W 074°07'3 6.2
2017-Sep-14 17:00N 40°40' W 074°09'3 5.9
2017-Sep-14 16:30N 40°39' W 074°05'2 3.6
2017-Sep-14 16:01N 40°39' W 074°02'0 0.1
2017-Sep-14 15:31N 40°39' W 074°02'0 0.1
2017-Sep-14 15:01N 40°39' W 074°02'0 0.1
2017-Sep-14 14:31N 40°39' W 074°02'0 0.0
2017-Sep-14 14:01N 40°39' W 074°02'0 0.0
2017-Sep-14 13:31N 40°39' W 074°02'0 0.0
2017-Sep-14 13:00N 40°39' W 074°02'0 0.0
2017-Sep-14 12:31N 40°39' W 074°02'0 0.4
2017-Sep-14 12:01N 40°39' W 074°03'4 7.7
2017-Sep-14 11:31N 40°39' W 074°08'4 7.5
2017-Sep-14 11:00N 40°37' W 074°12'1 1.3
2017-Sep-14 10:30N 40°36' W 074°12'0 0.0
2017-Sep-14 10:00N 40°36' W 074°12'0 0.0
2017-Sep-14 09:30N 40°36' W 074°12'0 0.0
2017-Sep-14 09:00N 40°36' W 074°12'0 0.0
2017-Sep-14 08:31N 40°36' W 074°12'0 0.0
2017-Sep-14 08:00N 40°36' W 074°12'0 0.0
2017-Sep-14 07:30N 40°36' W 074°12'0 0.0
2017-Sep-14 07:00N 40°36' W 074°12'0 0.0
2017-Sep-14 06:30N 40°36' W 074°12'0 0.0
2017-Sep-14 06:00N 40°36' W 074°12'0 0.0
2017-Sep-14 05:29N 40°36' W 074°12'0 0.0
2017-Sep-14 05:00N 40°36' W 074°12'0 0.0
2017-Sep-14 04:30N 40°36' W 074°12'0 0.0
2017-Sep-14 04:00N 40°36' W 074°12'0 0.0
2017-Sep-14 03:30N 40°36' W 074°12'0 0.0
2017-Sep-14 03:01N 40°36' W 074°12'0 0.0
2017-Sep-14 02:30N 40°36' W 074°12'0 0.0
2017-Sep-14 02:00N 40°36' W 074°12'0 0.0
2017-Sep-14 01:30N 40°36' W 074°12'0 0.0
2017-Sep-14 01:00N 40°36' W 074°12'0 0.0
2017-Sep-14 00:30N 40°36' W 074°12'0 0.0
2017-Sep-14 00:00N 40°36' W 074°12'0 0.0
2017-Sep-13 23:30N 40°36' W 074°12'0 0.0
2017-Sep-13 23:00N 40°36' W 074°12'0 0.0
2017-Sep-13 22:30N 40°36' W 074°12'0 0.0
2017-Sep-13 22:00N 40°36' W 074°12'0 0.0
2017-Sep-13 21:30N 40°36' W 074°12'0 0.0
2017-Sep-13 21:00N 40°36' W 074°12'0 0.0
2017-Sep-13 20:30N 40°36' W 074°12'0 0.0
2017-Sep-13 19:59N 40°36' W 074°12'0 0.0
2017-Sep-13 19:30N 40°36' W 074°12'0 0.0
2017-Sep-13 18:37N 40°36' W 074°12'0 0.0
2017-Sep-13 18:28N 40°36' W 074°12'0 0.0
2017-Sep-13 18:00N 40°36' W 074°12'1 2.5
2017-Sep-13 17:31N 40°38' W 074°12'4 8.3
2017-Sep-13 17:01N 40°39' W 074°07'4 7.1
2017-Sep-13 16:31N 40°40' W 074°02'0 0.0
2017-Sep-13 16:01N 40°40' W 074°02'0 0.0
2017-Sep-13 15:31N 40°40' W 074°02'0 0.1
2017-Sep-13 15:00N 40°39' W 074°02'0 0.2
2017-Sep-13 14:30N 40°39' W 074°02'0 0.0
2017-Sep-13 14:01N 40°39' W 074°02'0 0.0
2017-Sep-13 13:31N 40°39' W 074°02'0 0.0
2017-Sep-13 13:01N 40°39' W 074°02'0 0.0
2017-Sep-13 12:30N 40°39' W 074°02'0 0.0
2017-Sep-13 12:01N 40°39' W 074°02'0 0.0
2017-Sep-13 11:31N 40°39' W 074°02'0 0.0
2017-Sep-13 11:01N 40°39' W 074°02'0 0.0
2017-Sep-13 10:31N 40°39' W 074°02'0 0.0
2017-Sep-13 10:01N 40°39' W 074°02'0 0.0
2017-Sep-13 09:30N 40°39' W 074°02'0 0.0
2017-Sep-13 09:01N 40°39' W 074°02'0 0.1
2017-Sep-13 08:31N 40°39' W 074°02'0 0.1
2017-Sep-13 08:01N 40°39' W 074°02'0 0.1
2017-Sep-13 07:30N 40°40' W 074°02'0 0.1
2017-Sep-13 07:00N 40°40' W 074°02'0 0.0
2017-Sep-13 06:31N 40°40' W 074°02'0 0.0
2017-Sep-13 06:01N 40°40' W 074°02'0 0.0
2017-Sep-13 05:31N 40°40' W 074°02'0 0.0
2017-Sep-13 05:00N 40°40' W 074°02'0 0.1
2017-Sep-13 04:31N 40°40' W 074°02'0 0.0
2017-Sep-13 04:01N 40°40' W 074°02'0 0.0
2017-Sep-13 03:31N 40°40' W 074°02'0 0.1
2017-Sep-13 03:00N 40°40' W 074°02'0 0.2
2017-Sep-13 02:30N 40°39' W 074°02'0 0.0
2017-Sep-13 02:00N 40°39' W 074°02'0 0.0
2017-Sep-13 01:31N 40°39' W 074°02'0 0.0
2017-Sep-13 01:01N 40°39' W 074°02'0 0.0
2017-Sep-13 00:31N 40°39' W 074°02'0 0.0
2017-Sep-13 00:00N 40°39' W 074°02'0 0.0
2017-Sep-12 23:30N 40°39' W 074°02'0 0.0
2017-Sep-12 23:01N 40°39' W 074°02'0 0.0
2017-Sep-12 22:31N 40°39' W 074°02'0 0.0
2017-Sep-12 22:00N 40°39' W 074°02'0 0.0
2017-Sep-12 21:31N 40°39' W 074°02'0 0.0
2017-Sep-12 21:01N 40°39' W 074°02'0 0.1
2017-Sep-12 20:30N 40°39' W 074°02'0 0.1
2017-Sep-12 20:01N 40°39' W 074°02'0 0.1
2017-Sep-12 19:31N 40°40' W 074°02'0 0.0
2017-Sep-12 19:01N 40°40' W 074°02'0 0.1
2017-Sep-12 18:31N 40°40' W 074°02'0 0.0
2017-Sep-12 18:01N 40°40' W 074°02'0 0.0
2017-Sep-12 17:31N 40°40' W 074°02'0 0.0
2017-Sep-12 17:01N 40°40' W 074°02'0 0.0
2017-Sep-12 16:31N 40°40' W 074°02'0 0.0
2017-Sep-12 16:00N 40°40' W 074°02'0 0.0
2017-Sep-12 15:31N 40°40' W 074°02'0 0.0
2017-Sep-12 15:01N 40°40' W 074°02'0 0.1
2017-Sep-12 14:31N 40°39' W 074°02'0 0.1
2017-Sep-12 14:01N 40°39' W 074°02'0 0.1
2017-Sep-12 13:31N 40°39' W 074°02'0 0.1
2017-Sep-12 13:01N 40°39' W 074°02'0 0.0
2017-Sep-12 12:30N 40°39' W 074°02'0 0.0
2017-Sep-12 12:01N 40°39' W 074°02'0 0.0
2017-Sep-12 11:31N 40°39' W 074°02'0 0.0
2017-Sep-12 11:00N 40°39' W 074°02'0 0.0
2017-Sep-12 10:31N 40°39' W 074°02'0 0.0
2017-Sep-12 10:00N 40°39' W 074°02'0 0.0
2017-Sep-12 09:31N 40°39' W 074°02'0 0.0
2017-Sep-12 09:01N 40°39' W 074°02'0 0.0
2017-Sep-12 08:31N 40°39' W 074°02'0 0.0
2017-Sep-12 08:00N 40°39' W 074°02'0 0.0
2017-Sep-12 07:31N 40°39' W 074°02'0 0.2
2017-Sep-12 07:01N 40°39' W 074°02'0 0.1
2017-Sep-12 06:31N 40°40' W 074°02'0 0.0
2017-Sep-12 06:01N 40°40' W 074°02'0 0.0
2017-Sep-12 05:31N 40°40' W 074°02'0 0.0
2017-Sep-12 05:01N 40°40' W 074°02'0 0.0
2017-Sep-12 04:31N 40°40' W 074°02'0 0.0
2017-Sep-12 04:01N 40°40' W 074°02'0 0.0
2017-Sep-12 03:30N 40°40' W 074°02'0 0.0
2017-Sep-12 02:30N 40°40' W 074°02'0 0.0
2017-Sep-12 02:01N 40°40' W 074°02'0 0.1
2017-Sep-12 01:31N 40°39' W 074°02'0 0.1
2017-Sep-12 01:01N 40°39' W 074°02'0 0.1
2017-Sep-12 00:31N 40°39' W 074°02'0 0.0
2017-Sep-12 00:00N 40°39' W 074°02'0 0.0
2017-Sep-11 23:31N 40°39' W 074°02'0 0.0
2017-Sep-11 23:01N 40°39' W 074°02'0 0.0
2017-Sep-11 22:30N 40°39' W 074°02'0 0.0
2017-Sep-11 22:00N 40°39' W 074°02'0 0.1
2017-Sep-11 21:30N 40°39' W 074°02'0 0.0
2017-Sep-11 21:00N 40°39' W 074°02'0 0.0
2017-Sep-11 20:31N 40°39' W 074°02'0 0.0
2017-Sep-11 20:01N 40°39' W 074°02'0 0.0
2017-Sep-11 19:31N 40°39' W 074°02'0 0.1
2017-Sep-11 19:01N 40°39' W 074°02'0 0.2
2017-Sep-11 18:31N 40°40' W 074°02'0 0.1
2017-Sep-11 18:01N 40°40' W 074°02'0 0.4
2017-Sep-11 17:31N 40°39' W 074°03'3 6.1
2017-Sep-11 17:01N 40°39' W 074°06'2 3.9
2017-Sep-11 16:31N 40°40' W 074°08'2 4.6
2017-Sep-11 16:01N 40°43' W 074°07'0 1.0
2017-Sep-11 15:31N 40°43' W 074°07'0 0.1
2017-Sep-11 15:00N 40°43' W 074°07'0 0.2
2017-Sep-11 14:30N 40°43' W 074°07'0 0.0
2017-Sep-11 14:01N 40°43' W 074°07'1 1.5
2017-Sep-11 13:31N 40°42' W 074°07'4 7.1
2017-Sep-11 13:00N 40°39' W 074°08'0 0.6
2017-Sep-11 12:31N 40°38' W 074°08'0 0.0
2017-Sep-11 12:01N 40°38' W 074°08'0 0.0
2017-Sep-11 11:30N 40°38' W 074°08'0 0.0
2017-Sep-11 11:01N 40°38' W 074°08'0 0.0
2017-Sep-11 10:30N 40°38' W 074°08'0 0.0
2017-Sep-11 10:00N 40°38' W 074°08'0 0.0
2017-Sep-11 09:31N 40°38' W 074°08'0 0.0
2017-Sep-11 08:59N 40°38' W 074°08'0 0.0
2017-Sep-11 08:30N 40°38' W 074°08'0 0.0
2017-Sep-11 08:00N 40°38' W 074°08'0 0.0
2017-Sep-11 07:31N 40°38' W 074°08'0 0.0
2017-Sep-11 06:57N 40°38' W 074°08'0 0.0
2017-Sep-11 06:30N 40°38' W 074°08'0 0.0
2017-Sep-11 06:00N 40°38' W 074°08'0 0.0
2017-Sep-11 05:30N 40°38' W 074°08'0 0.0
2017-Sep-11 05:00N 40°38' W 074°08'2 3.4
2017-Sep-11 04:31N 40°40' W 074°08'3 5.9
2017-Sep-11 04:00N 40°43' W 074°07'  

Dump ship's entire track history